Time;durP1;ratioP1;P1;durP2;ratioP2;P2;SDS_P1;SDS_P2;PMS_P1;PMS_P2;Temp;Humidity;BMP_temperature;BMP_pressure;BME280_temperature;BME280_humidity;BME280_pressure;Samples;Min_cycle;Max_cycle;Signal;HPM_P1;HPM_P2
2021/08/25 00:00:30;;;;;;;472.45;440.23;;;15.70;99.90;;;;;;5065820;28;20266;-75
2021/08/25 00:02:57;;;;;;;513.35;478.98;;;15.70;99.90;;;;;;5052950;28;20259;-75
2021/08/25 00:05:24;;;;;;;462.75;431.30;;;15.70;99.90;;;;;;5056101;28;20204;-75
2021/08/25 00:07:51;;;;;;;479.30;446.30;;;15.70;99.90;;;;;;5060892;28;20223;-75
2021/08/25 00:10:18;;;;;;;495.77;462.13;;;15.70;99.90;;;;;;5049658;28;20235;-75
2021/08/25 00:12:45;;;;;;;471.27;440.35;;;15.70;99.90;;;;;;5055184;28;20203;-75
2021/08/25 00:15:12;;;;;;;496.83;463.00;;;15.70;99.90;;;;;;5049895;28;20204;-75
2021/08/25 00:17:40;;;;;;;532.10;495.15;;;15.70;99.90;;;;;;5056500;28;20204;-75
2021/08/25 00:20:09;;;;;;;499.08;465.33;;;15.70;99.90;;;;;;5052632;28;20212;-75
2021/08/25 00:22:35;;;;;;;462.35;431.50;;;15.70;99.90;;;;;;5055489;28;20328;-75
2021/08/25 00:25:03;;;;;;;478.42;446.17;;;15.70;99.90;;;;;;5056973;28;20261;-75
2021/08/25 00:27:30;;;;;;;474.65;442.20;;;15.70;99.90;;;;;;5057847;28;20223;-76
2021/08/25 00:29:56;;;;;;;454.80;424.95;;;15.70;99.90;;;;;;5059369;28;20230;-75
2021/08/25 00:32:23;;;;;;;492.13;459.20;;;15.80;99.90;;;;;;5049245;28;20290;-76
2021/08/25 00:34:52;;;;;;;488.60;456.05;;;15.70;99.90;;;;;;5052974;28;20264;-75
2021/08/25 00:37:19;;;;;;;524.13;489.17;;;15.70;99.90;;;;;;5057094;28;20209;-75
2021/08/25 00:39:46;;;;;;;554.17;515.40;;;15.70;99.90;;;;;;5052247;28;20205;-75
2021/08/25 00:42:13;;;;;;;570.75;531.28;;;15.70;99.90;;;;;;5055385;28;20202;-75
2021/08/25 00:44:41;;;;;;;560.08;522.10;;;15.70;99.90;;;;;;5066315;28;20228;-75
2021/08/25 00:47:09;;;;;;;576.05;537.08;;;15.70;99.90;;;;;;5056279;28;20201;-75
2021/08/25 00:49:36;;;;;;;558.95;520.15;;;15.70;99.90;;;;;;5048421;28;20718;-75
2021/08/25 00:52:05;;;;;;;585.75;545.97;;;15.60;99.90;;;;;;5056100;28;20238;-75
2021/08/25 00:54:32;;;;;;;522.10;487.42;;;15.60;99.90;;;;;;5055199;28;20230;-75
2021/08/25 00:56:59;;;;;;;475.75;443.65;;;15.60;99.90;;;;;;5057055;28;20247;-75
2021/08/25 00:59:26;;;;;;;497.48;463.50;;;15.60;99.90;;;;;;5060532;28;20206;-75
2021/08/25 01:02:07;;;;;;;499.33;466.50;;;15.70;99.90;;;;;;5054952;28;20218;-75
2021/08/25 01:04:40;;;;;;;487.70;455.77;;;15.70;99.90;;;;;;5056814;28;20258;-75
2021/08/25 01:07:09;;;;;;;539.80;503.35;;;15.70;99.90;;;;;;5064490;28;20234;-76
2021/08/25 01:09:38;;;;;;;526.00;490.30;;;15.70;99.90;;;;;;5066478;28;20200;-75
2021/08/25 01:12:07;;;;;;;502.13;468.45;;;15.70;99.90;;;;;;5049689;28;20205;-75
2021/08/25 01:14:34;;;;;;;514.45;480.17;;;15.70;99.90;;;;;;5054009;28;20723;-75
2021/08/25 01:17:02;;;;;;;518.47;483.88;;;15.70;99.90;;;;;;5054119;28;20212;-76
2021/08/25 01:19:36;;;;;;;523.03;487.80;;;15.70;99.90;;;;;;5054252;28;20306;-75
2021/08/25 01:22:04;;;;;;;528.83;493.38;;;15.60;99.90;;;;;;5048185;28;20207;-76
2021/08/25 01:24:33;;;;;;;512.05;477.95;;;15.60;99.90;;;;;;5049003;28;20207;-76
2021/08/25 01:27:02;;;;;;;505.35;471.10;;;15.60;99.90;;;;;;5065986;28;20526;-76
2021/08/25 01:29:32;;;;;;;519.40;484.63;;;15.60;99.90;;;;;;5060902;28;20228;-76
2021/08/25 01:32:00;;;;;;;493.65;460.63;;;15.70;99.90;;;;;;5054344;28;20624;-76
2021/08/25 01:34:27;;;;;;;488.40;455.75;;;15.70;99.90;;;;;;5060481;28;20253;-76
2021/08/25 01:36:55;;;;;;;493.15;460.50;;;15.70;99.90;;;;;;5054457;28;20730;-76
2021/08/25 01:39:22;;;;;;;514.35;479.77;;;15.70;99.90;;;;;;5058309;28;20195;-76
2021/08/25 01:41:50;;;;;;;476.58;444.23;;;15.80;99.90;;;;;;5067092;28;20627;-76
2021/08/25 01:44:18;;;;;;;473.25;441.75;;;15.80;99.90;;;;;;5054437;28;20201;-76
2021/08/25 01:46:47;;;;;;;512.17;477.80;;;15.80;99.90;;;;;;5063534;28;20211;-76
2021/08/25 01:49:15;;;;;;;484.60;452.42;;;15.80;99.90;;;;;;5047049;28;20235;-76
2021/08/25 01:51:43;;;;;;;568.65;529.58;;;15.90;99.90;;;;;;5055766;28;20201;-76
2021/08/25 01:54:12;;;;;;;515.90;481.60;;;15.80;99.90;;;;;;5065588;28;20267;-76
2021/08/25 01:56:39;;;;;;;541.05;504.30;;;15.80;99.90;;;;;;5060059;28;20217;-76
2021/08/25 01:59:08;;;;;;;525.75;489.38;;;15.80;99.90;;;;;;5054830;28;20202;-75
2021/08/25 02:01:35;;;;;;;501.15;467.30;;;15.70;99.90;;;;;;5054952;28;20206;-75
2021/08/25 02:04:04;;;;;;;515.00;479.30;;;15.70;99.90;;;;;;5051851;28;20233;-75
2021/08/25 02:06:31;;;;;;;514.05;479.60;;;15.70;99.90;;;;;;5048158;28;20202;-76
2021/08/25 02:08:59;;;;;;;519.33;484.40;;;15.60;99.90;;;;;;5047589;28;20236;-76
2021/08/25 02:11:26;;;;;;;547.67;510.92;;;15.60;99.90;;;;;;5055314;28;20224;-76
2021/08/25 02:13:53;;;;;;;487.67;455.23;;;15.70;99.90;;;;;;5061445;28;20233;-76
2021/08/25 02:16:21;;;;;;;534.25;498.23;;;15.70;99.90;;;;;;5057380;28;20204;-76
2021/08/25 02:18:48;;;;;;;511.55;477.30;;;15.70;99.90;;;;;;5061973;28;20204;-76
2021/08/25 02:21:16;;;;;;;546.72;509.48;;;15.70;99.90;;;;;;5047458;28;20236;-76
2021/08/25 02:23:43;;;;;;;512.22;477.95;;;15.70;99.90;;;;;;5048042;28;20199;-75
2021/08/25 02:26:16;;;;;;;520.50;485.63;;;15.80;99.90;;;;;;5051998;28;20270;-75
2021/08/25 02:28:44;;;;;;;518.63;483.25;;;15.80;99.90;;;;;;5052923;28;20231;-76
2021/08/25 02:31:11;;;;;;;491.15;458.27;;;15.70;99.90;;;;;;5060719;28;20298;-76
2021/08/25 02:33:38;;;;;;;505.75;471.77;;;15.70;99.90;;;;;;5050279;28;20203;-75
2021/08/25 02:36:06;;;;;;;527.75;491.00;;;15.80;99.90;;;;;;5064516;28;20203;-76
2021/08/25 02:38:36;;;;;;;516.60;481.67;;;15.70;99.90;;;;;;5066125;28;20211;-76
2021/08/25 02:41:03;;;;;;;539.47;502.77;;;15.70;99.90;;;;;;5056832;28;20203;-76
2021/08/25 02:43:30;;;;;;;526.75;491.27;;;15.70;99.90;;;;;;5054390;28;20204;-75
2021/08/25 02:45:57;;;;;;;529.55;493.90;;;15.60;99.90;;;;;;5063167;28;20208;-76
2021/08/25 02:48:24;;;;;;;516.83;482.30;;;15.70;99.90;;;;;;5063578;28;20229;-76
2021/08/25 02:50:51;;;;;;;516.40;481.88;;;15.70;99.90;;;;;;5059331;28;20225;-76
2021/08/25 02:53:18;;;;;;;512.40;478.23;;;15.70;99.90;;;;;;5065479;28;20208;-76
2021/08/25 02:55:46;;;;;;;526.90;491.52;;;15.70;99.90;;;;;;5064018;28;20205;-76
2021/08/25 02:58:14;;;;;;;531.42;494.88;;;15.70;99.90;;;;;;5059340;28;20205;-76
2021/08/25 03:00:41;;;;;;;530.80;494.70;;;15.70;99.90;;;;;;5056107;28;20208;-75
2021/08/25 03:03:08;;;;;;;524.75;488.42;;;15.70;99.90;;;;;;5051839;28;20239;-76
2021/08/25 03:05:35;;;;;;;507.48;472.80;;;15.70;99.90;;;;;;5051097;28;20229;-76
2021/08/25 03:08:03;;;;;;;541.47;505.08;;;15.60;99.90;;;;;;5050061;28;20254;-76
2021/08/25 03:10:30;;;;;;;514.70;479.10;;;15.60;99.90;;;;;;5069592;28;20257;-76
2021/08/25 03:12:58;;;;;;;522.58;487.45;;;15.50;99.90;;;;;;5058194;28;20234;-76
2021/08/25 03:15:27;;;;;;;539.25;502.88;;;15.50;99.90;;;;;;5056744;28;20235;-76
2021/08/25 03:17:54;;;;;;;553.63;514.72;;;15.60;99.90;;;;;;5064370;28;20196;-76
2021/08/25 03:20:21;;;;;;;536.25;500.05;;;15.50;99.90;;;;;;5068276;28;20249;-76
2021/08/25 03:22:48;;;;;;;543.10;506.27;;;15.50;99.90;;;;;;5056520;28;20203;-75
2021/08/25 03:25:16;;;;;;;523.78;488.67;;;15.50;99.90;;;;;;5052767;28;20208;-76
2021/08/25 03:27:43;;;;;;;565.40;526.58;;;15.40;99.90;;;;;;5051092;28;20207;-76
2021/08/25 03:30:13;;;;;;;539.20;502.00;;;15.40;99.90;;;;;;5063476;28;20260;-76
2021/08/25 03:32:40;;;;;;;559.88;521.67;;;15.40;99.90;;;;;;5050481;28;20234;-75
2021/08/25 03:35:08;;;;;;;532.95;496.95;;;15.40;99.90;;;;;;5056520;28;20254;-75
2021/08/25 03:37:38;;;;;;;545.28;508.60;;;15.40;99.90;;;;;;5060663;28;20248;-76
2021/08/25 03:40:06;;;;;;;521.05;485.63;;;15.40;99.90;;;;;;5060886;28;20210;-75
2021/08/25 03:42:33;;;;;;;523.13;486.58;;;15.40;99.90;;;;;;5059283;28;20608;-75
2021/08/25 03:45:00;;;;;;;533.30;497.10;;;15.30;99.90;;;;;;5059932;28;20238;-75
2021/08/25 03:47:31;;;;;;;500.08;465.67;;;15.20;99.90;;;;;;5054647;28;20223;-75
2021/08/25 03:49:58;;;;;;;544.70;506.58;;;15.30;99.90;;;;;;5050741;28;20251;-76
2021/08/25 03:52:26;;;;;;;565.38;526.58;;;15.30;99.90;;;;;;5055176;28;20568;-75
2021/08/25 03:54:53;;;;;;;554.42;516.50;;;15.30;99.90;;;;;;5056783;28;20200;-76
2021/08/25 03:57:20;;;;;;;534.70;497.45;;;15.30;99.90;;;;;;5055615;28;20207;-76
2021/08/25 03:59:47;;;;;;;520.80;485.75;;;15.30;99.90;;;;;;5050534;28;20204;-75
2021/08/25 04:02:14;;;;;;;545.03;508.00;;;15.30;99.90;;;;;;5049361;28;20201;-76
2021/08/25 04:04:42;;;;;;;541.38;504.13;;;15.30;99.90;;;;;;5057659;28;20236;-76
2021/08/25 04:07:10;;;;;;;538.33;501.70;;;15.20;99.90;;;;;;5048855;28;20208;-76
2021/08/25 04:09:37;;;;;;;569.85;529.95;;;15.20;99.90;;;;;;5057075;28;20256;-75
2021/08/25 04:12:04;;;;;;;551.45;513.80;;;15.10;99.90;;;;;;5063754;28;20201;-76
2021/08/25 04:14:31;;;;;;;493.05;458.63;;;15.20;99.90;;;;;;5059102;28;20219;-76
2021/08/25 04:16:59;;;;;;;525.90;489.90;;;15.20;99.90;;;;;;5049193;28;20203;-76
2021/08/25 04:19:26;;;;;;;524.28;488.42;;;15.20;99.90;;;;;;5050072;28;20200;-76
2021/08/25 04:21:54;;;;;;;529.90;492.60;;;15.20;99.90;;;;;;5054428;28;20253;-76
2021/08/25 04:24:21;;;;;;;531.75;495.45;;;15.30;99.90;;;;;;5048153;28;20230;-75
2021/08/25 04:26:48;;;;;;;504.48;469.60;;;15.30;99.90;;;;;;5060349;28;20200;-76
2021/08/25 04:29:15;;;;;;;540.85;504.30;;;15.30;99.90;;;;;;5052007;28;20254;-75
2021/08/25 04:31:42;;;;;;;536.97;499.40;;;15.30;99.90;;;;;;5050003;28;20560;-75
2021/08/25 04:34:10;;;;;;;549.22;511.13;;;15.20;99.90;;;;;;5054531;28;20230;-76
2021/08/25 04:36:37;;;;;;;573.58;534.75;;;15.20;99.90;;;;;;5053797;28;20211;-76
2021/08/25 04:39:05;;;;;;;566.55;528.08;;;15.20;99.90;;;;;;5061963;28;20276;-76
2021/08/25 04:41:32;;;;;;;417.02;390.10;;;15.20;99.90;;;;;;5061023;28;20463;-76
2021/08/25 04:43:59;;;;;;;501.27;467.60;;;15.20;99.90;;;;;;5067633;28;20212;-76
2021/08/25 04:46:26;;;;;;;553.03;515.42;;;15.20;99.90;;;;;;5060595;28;20229;-75
2021/08/25 04:48:54;;;;;;;518.33;482.95;;;15.10;99.90;;;;;;5050616;28;20262;-75
2021/08/25 04:51:20;;;;;;;544.28;507.02;;;15.10;99.90;;;;;;5054024;28;20213;-75
2021/08/25 04:53:48;;;;;;;573.72;534.33;;;15.10;99.90;;;;;;5048437;28;20208;-75
2021/08/25 04:56:16;;;;;;;575.08;535.47;;;15.10;99.90;;;;;;5054316;28;20209;-76
2021/08/25 04:58:43;;;;;;;578.30;538.70;;;15.00;99.90;;;;;;5066622;28;20208;-77
2021/08/25 05:01:10;;;;;;;531.80;495.67;;;15.00;99.90;;;;;;5055118;28;20258;-76
2021/08/25 05:03:37;;;;;;;505.17;469.55;;;14.90;99.90;;;;;;5054497;28;20243;-75
2021/08/25 05:06:08;;;;;;;510.23;473.77;;;14.90;99.90;;;;;;5060369;28;20211;-75
2021/08/25 05:08:34;;;;;;;535.38;497.52;;;14.90;99.90;;;;;;5056869;28;20250;-75
2021/08/25 05:11:02;;;;;;;526.55;490.58;;;14.90;99.90;;;;;;5063172;28;20203;-75
2021/08/25 05:13:31;;;;;;;517.63;481.15;;;14.90;99.90;;;;;;5050203;28;20227;-75
2021/08/25 05:15:59;;;;;;;580.47;540.42;;;14.90;99.90;;;;;;5054951;28;20207;-75
2021/08/25 05:18:26;;;;;;;576.30;536.05;;;14.90;99.90;;;;;;5049470;28;20262;-75
2021/08/25 05:20:54;;;;;;;540.60;503.02;;;14.90;99.90;;;;;;5055970;28;20199;-75
2021/08/25 05:23:20;;;;;;;507.00;471.95;;;14.90;99.90;;;;;;5055930;28;20207;-75
2021/08/25 05:25:47;;;;;;;556.72;516.55;;;15.00;99.90;;;;;;5049752;28;20266;-75
2021/08/25 05:28:14;;;;;;;590.45;549.00;;;14.90;99.90;;;;;;5057105;28;20198;-75
2021/08/25 05:30:43;;;;;;;538.67;501.95;;;15.00;99.90;;;;;;5069271;28;20241;-76
2021/08/25 05:33:10;;;;;;;545.17;507.75;;;15.00;99.90;;;;;;5052955;28;20259;-75
2021/08/25 05:35:37;;;;;;;553.80;515.83;;;15.00;99.90;;;;;;5052836;28;20299;-76
2021/08/25 05:38:04;;;;;;;543.47;505.50;;;15.10;99.90;;;;;;5054035;28;20234;-75
2021/08/25 05:40:31;;;;;;;575.72;534.85;;;15.10;99.90;;;;;;5058271;28;20212;-76
2021/08/25 05:43:00;;;;;;;532.72;493.98;;;15.10;99.90;;;;;;5057426;28;20202;-76
2021/08/25 05:45:27;;;;;;;536.65;499.67;;;15.10;99.90;;;;;;5054944;28;20199;-76
2021/08/25 05:47:57;;;;;;;547.33;508.67;;;15.10;99.90;;;;;;5053788;28;20199;-76
2021/08/25 05:50:25;;;;;;;534.65;496.98;;;15.10;99.90;;;;;;5049675;28;20263;-76
2021/08/25 05:52:52;;;;;;;539.53;501.13;;;15.20;99.90;;;;;;5054232;28;20652;-76
2021/08/25 05:55:19;;;;;;;570.63;528.97;;;15.20;99.90;;;;;;5054421;28;20266;-77
2021/08/25 05:57:46;;;;;;;541.08;502.48;;;15.10;99.90;;;;;;5052097;28;20203;-76
2021/08/25 06:00:15;;;;;;;537.03;497.48;;;15.20;99.90;;;;;;5052394;28;20290;-75
2021/08/25 06:02:42;;;;;;;558.88;519.08;;;15.20;99.90;;;;;;5055078;28;20228;-76
2021/08/25 06:05:12;;;;;;;528.20;489.48;;;15.30;99.90;;;;;;5056677;28;20205;-75
2021/08/25 06:07:39;;;;;;;517.55;480.80;;;15.30;99.90;;;;;;5054037;28;20271;-76
2021/08/25 06:10:08;;;;;;;554.30;516.33;;;15.40;99.90;;;;;;5051553;28;20267;-76
2021/08/25 06:12:35;;;;;;;525.80;489.10;;;15.40;99.90;;;;;;5047825;28;20200;-76
2021/08/25 06:15:02;;;;;;;514.90;478.63;;;15.50;99.90;;;;;;5053261;28;20201;-76
2021/08/25 06:22:53;;;;;;;521.00;485.48;;;15.80;99.90;;;;;;5057177;28;20240;-77
2021/08/25 06:25:20;;;;;;;511.95;476.27;;;15.90;99.90;;;;;;5070633;28;20199;-77
2021/08/25 06:27:54;;;;;;;514.08;478.63;;;15.80;99.90;;;;;;5060360;28;20207;-77
2021/08/25 06:33:04;;;;;;;537.08;499.73;;;16.00;99.90;;;;;;5050356;28;20718;-76
2021/08/25 06:35:32;;;;;;;519.78;484.95;;;16.10;99.90;;;;;;5057332;28;20264;-77
2021/08/25 06:38:00;;;;;;;516.15;481.30;;;16.20;99.90;;;;;;5064425;28;20207;-76
2021/08/25 06:40:27;;;;;;;538.97;502.10;;;16.30;99.90;;;;;;5052126;28;20212;-76
2021/08/25 06:42:54;;;;;;;541.85;504.80;;;16.50;99.90;;;;;;5051442;28;20209;-76
2021/08/25 06:45:20;;;;;;;552.22;514.95;;;16.50;99.90;;;;;;5057843;28;20203;-76
2021/08/25 06:47:47;;;;;;;517.08;482.10;;;16.60;99.90;;;;;;5064500;28;20201;-76
2021/08/25 06:50:14;;;;;;;495.77;461.80;;;16.70;99.90;;;;;;5054479;28;20228;-76
2021/08/25 06:52:43;;;;;;;403.83;377.42;;;16.80;99.90;;;;;;5062352;28;20547;-77
2021/08/25 06:55:10;;;;;;;530.17;494.13;;;16.90;99.90;;;;;;5055739;28;20257;-76
2021/08/25 06:57:39;;;;;;;547.40;510.40;;;17.00;99.90;;;;;;5063185;28;20204;-76
2021/08/25 07:00:08;;;;;;;532.35;496.13;;;17.10;99.90;;;;;;5058938;28;20266;-76
2021/08/25 07:02:35;;;;;;;541.85;504.98;;;17.30;99.90;;;;;;5054469;28;20233;-76
2021/08/25 07:05:02;;;;;;;546.33;509.35;;;17.60;99.90;;;;;;5052841;28;20200;-76
2021/08/25 07:07:29;;;;;;;494.60;461.38;;;17.90;99.90;;;;;;5054768;28;20275;-77
2021/08/25 07:09:59;;;;;;;513.22;478.60;;;18.20;99.90;;;;;;5058742;28;20227;-77
2021/08/25 07:12:28;;;;;;;534.08;497.45;;;18.50;99.90;;;;;;5057487;28;20704;-77
2021/08/25 07:14:55;;;;;;;341.63;320.63;;;18.90;99.90;;;;;;5049801;28;20457;-76
2021/08/25 07:17:22;;;;;;;454.17;423.45;;;19.20;99.90;;;;;;5056560;28;20454;-76
2021/08/25 07:19:49;;;;;;;474.77;442.45;;;19.60;99.90;;;;;;5057098;28;20260;-76
2021/08/25 07:22:39;;;;;;;470.58;438.02;;;19.90;99.90;;;;;;5051083;28;20225;-76
2021/08/25 07:25:12;;;;;;;472.70;440.35;;;20.30;99.90;;;;;;5049290;28;20636;-76
2021/08/25 07:27:40;;;;;;;451.20;420.92;;;20.70;99.90;;;;;;5061360;28;20207;-76
2021/08/25 07:30:25;;;;;;;425.85;397.70;;;21.10;99.90;;;;;;5070019;28;20255;-76
2021/08/25 07:32:53;;;;;;;415.50;387.92;;;21.60;99.90;;;;;;5061200;28;20202;-76
2021/08/25 07:41:00;;;;;;;391.48;366.08;;;22.50;99.90;;;;;;5049810;28;20212;-76
2021/08/25 07:43:27;;;;;;;426.75;397.42;;;22.60;99.90;;;;;;5059822;28;20219;-76
2021/08/25 07:51:23;;;;;;;407.67;380.73;;;23.40;99.90;;;;;;5053747;28;20270;-77
2021/08/25 07:56:47;;;;;;;370.52;346.40;;;24.00;99.90;;;;;;5049807;28;20206;-76
2021/08/25 08:04:36;;;;;;;338.52;317.42;;;24.60;99.90;;;;;;5049527;28;20243;-76
2021/08/25 08:07:03;;;;;;;368.73;345.08;;;24.80;99.90;;;;;;5061979;28;20201;-76
2021/08/25 08:09:30;;;;;;;318.15;298.67;;;24.90;99.90;;;;;;5059880;28;20281;-76
2021/08/25 08:12:14;;;;;;;325.77;305.92;;;25.00;99.90;;;;;;5058113;28;20234;-76
2021/08/25 08:20:04;;;;;;;320.23;300.50;;;25.30;99.90;;;;;;5052962;28;20209;-76
2021/08/25 08:22:31;;;;;;;304.33;285.70;;;25.50;99.90;;;;;;5054324;28;20205;-77
2021/08/25 08:24:58;;;;;;;298.90;280.77;;;25.60;99.90;;;;;;5055110;28;20201;-76
2021/08/25 08:35:31;;;;;;;306.00;287.60;;;25.80;99.90;;;;;;5058156;28;20210;-75
2021/08/25 08:38:01;;;;;;;304.38;286.15;;;25.90;99.90;;;;;;5049445;28;20210;-75
2021/08/25 08:40:28;;;;;;;291.73;274.17;;;26.10;99.90;;;;;;5056458;28;20263;-76
2021/08/25 08:43:05;;;;;;;286.50;269.02;;;26.20;99.90;;;;;;5048473;28;20198;-76
2021/08/25 08:45:34;;;;;;;294.42;276.30;;;26.30;99.90;;;;;;5054833;28;20230;-75
2021/08/25 08:48:02;;;;;;;293.95;275.88;;;26.50;99.90;;;;;;5049270;28;20198;-75
2021/08/25 08:50:29;;;;;;;295.77;277.92;;;26.60;99.90;;;;;;5059731;28;20762;-75
2021/08/25 08:52:57;;;;;;;280.38;263.17;;;26.50;99.90;;;;;;5052118;28;20206;-76
2021/08/25 08:55:25;;;;;;;294.55;276.40;;;26.70;99.90;;;;;;5054002;28;20258;-75
2021/08/25 08:57:52;;;;;;;291.77;273.85;;;27.00;99.90;;;;;;5059433;28;20203;-75
2021/08/25 09:00:21;;;;;;;286.00;268.50;;;27.30;99.90;;;;;;5066648;28;20201;-76
2021/08/25 09:02:48;;;;;;;285.17;267.85;;;27.60;99.90;;;;;;5054988;28;20238;-75
2021/08/25 09:05:20;;;;;;;288.88;271.38;;;27.70;99.90;;;;;;5056414;28;20199;-75
2021/08/25 09:07:52;;;;;;;232.95;219.15;;;27.70;98.80;;;;;;5053039;28;20289;-75
2021/08/25 09:10:25;;;;;;;235.73;221.93;;;27.70;97.60;;;;;;5063663;28;20256;-76
2021/08/25 09:12:53;;;;;;;203.23;191.50;;;27.40;97.20;;;;;;5059089;28;20886;-76
2021/08/25 09:15:23;;;;;;;259.00;243.68;;;27.40;97.90;;;;;;5060970;28;20274;-75
2021/08/25 09:18:01;;;;;;;259.23;243.25;;;27.50;98.00;;;;;;5051774;28;20203;-75
2021/08/25 09:20:29;;;;;;;264.13;248.40;;;27.40;97.70;;;;;;5056879;28;20209;-76
2021/08/25 09:23:10;;;;;;;245.80;230.35;;;27.30;97.60;;;;;;5059539;28;20233;-76
2021/08/25 09:25:38;;;;;;;243.43;229.18;;;27.30;96.20;;;;;;5053849;28;20209;-76
2021/08/25 09:28:06;;;;;;;244.55;229.95;;;26.90;96.30;;;;;;5058749;28;20253;-75
2021/08/25 09:30:54;;;;;;;235.40;221.30;;;26.80;99.60;;;;;;5059140;28;20214;-76
2021/08/25 09:33:22;;;;;;;166.10;156.35;;;27.10;96.10;;;;;;5064433;28;20456;-77
2021/08/25 09:35:49;;;;;;;253.05;237.52;;;27.10;96.30;;;;;;5053137;28;20199;-76
2021/08/25 09:38:20;;;;;;;264.13;247.93;;;27.20;97.10;;;;;;5058936;28;20229;-76
2021/08/25 09:40:48;;;;;;;227.63;213.63;;;27.70;96.80;;;;;;5056686;28;20211;-76
2021/08/25 09:43:29;;;;;;;227.68;214.35;;;28.30;95.10;;;;;;5059371;28;20208;-76
2021/08/25 09:46:10;;;;;;;218.43;205.52;;;28.70;93.90;;;;;;5066320;28;20208;-75
2021/08/25 09:48:38;;;;;;;230.20;216.80;;;28.70;93.40;;;;;;5066821;28;20206;-75
2021/08/25 09:51:05;;;;;;;274.95;258.30;;;29.10;92.00;;;;;;5055769;28;20751;-76
2021/08/25 09:53:32;;;;;;;231.18;217.40;;;29.40;92.20;;;;;;5053490;28;20263;-76
2021/08/25 09:55:59;;;;;;;229.15;215.77;;;29.60;92.00;;;;;;5047112;28;20209;-76
2021/08/25 09:58:26;;;;;;;270.88;253.75;;;29.80;91.60;;;;;;5052727;28;20222;-76
2021/08/25 10:00:55;;;;;;;236.60;222.65;;;30.10;91.10;;;;;;5052998;28;20278;-77
2021/08/25 10:08:21;;;;;;;74.28;69.85;;;29.20;88.90;;;;;;5083784;28;20582;-76
2021/08/25 10:10:48;;;;;;;78.78;74.32;;;29.20;89.80;;;;;;5086435;28;20211;-76
2021/08/25 10:13:16;;;;;;;85.25;80.40;;;29.10;88.50;;;;;;5091164;28;20204;-76
2021/08/25 10:15:47;;;;;;;68.35;64.55;;;29.30;90.10;;;;;;5081819;28;20214;-76
2021/08/25 10:18:25;;;;;;;86.10;81.22;;;29.70;87.10;;;;;;5087646;28;20203;-76
2021/08/25 10:20:54;;;;;;;54.15;50.60;;;30.20;87.80;;;;;;5091500;28;20214;-76
2021/08/25 10:24:05;;;;;;;72.18;67.93;;;30.40;85.90;;;;;;5081881;28;20249;-77
2021/08/25 10:32:14;;;;;;;57.33;54.03;;;30.10;84.00;;;;;;5092158;28;20285;-76
2021/08/25 10:34:43;;;;;;;52.78;49.42;;;30.20;82.80;;;;;;5089579;28;20257;-77
2021/08/25 10:37:31;;;;;;;59.28;55.95;;;30.40;83.30;;;;;;5081881;28;20263;-76
2021/08/25 10:40:02;;;;;;;53.30;50.15;;;30.70;80.50;;;;;;5086115;28;20230;-76
2021/08/25 10:42:49;;;;;;;44.03;41.38;;;30.80;80.50;;;;;;5081941;28;20270;-76
2021/08/25 10:45:44;;;;;;;51.17;47.85;;;30.80;82.10;;;;;;5072558;28;20277;-77
2021/08/25 10:48:13;;;;;;;42.72;40.13;;;30.70;81.30;;;;;;5081663;28;20204;-77
2021/08/25 10:50:49;;;;;;;48.15;45.20;;;30.70;81.40;;;;;;5088285;28;20214;-75
2021/08/25 10:53:39;;;;;;;43.22;40.47;;;30.50;80.70;;;;;;5081430;28;20234;-75
2021/08/25 10:56:09;;;;;;;40.13;37.63;;;30.80;82.30;;;;;;5081339;28;20207;-75
2021/08/25 10:58:48;;;;;;;41.85;38.95;;;30.70;81.60;;;;;;5088441;28;20229;-75
2021/08/25 11:01:28;;;;;;;40.22;37.92;;;30.20;80.60;;;;;;5081069;28;20622;-75
2021/08/25 11:03:57;;;;;;;43.97;40.95;;;29.90;82.10;;;;;;5081637;28;20237;-75
2021/08/25 11:06:35;;;;;;;63.78;59.97;;;29.50;82.10;;;;;;5081379;28;20205;-75
2021/08/25 11:09:23;;;;;;;63.88;60.22;;;29.10;80.30;;;;;;5090214;28;20204;-75
2021/08/25 11:11:54;;;;;;;79.18;74.63;;;28.60;83.80;;;;;;5087014;28;20215;-75
2021/08/25 11:14:28;;;;;;;94.18;88.90;;;28.20;81.10;;;;;;5078847;28;20228;-74
2021/08/25 11:16:56;;;;;;;108.60;102.72;;;27.80;82.20;;;;;;5067964;28;20716;-74
2021/08/25 11:19:26;;;;;;;155.38;146.70;;;27.50;82.60;;;;;;5069894;28;20453;-74
2021/08/25 11:21:54;;;;;;;165.98;156.88;;;27.00;83.40;;;;;;5074816;28;20198;-75
2021/08/25 11:24:21;;;;;;;153.75;145.43;;;26.60;83.20;;;;;;5072345;28;20280;-76
2021/08/25 11:26:49;;;;;;;139.20;131.63;;;26.20;84.50;;;;;;5074423;28;20259;-76
2021/08/25 11:29:19;;;;;;;145.52;137.82;;;25.80;86.00;;;;;;5070613;28;20221;-76
2021/08/25 11:31:50;;;;;;;185.93;175.73;;;25.50;85.00;;;;;;5070545;28;20283;-76
2021/08/25 11:34:18;;;;;;;152.00;143.65;;;25.40;87.90;;;;;;5070794;28;20263;-76
2021/08/25 11:36:59;;;;;;;146.90;139.07;;;25.30;86.90;;;;;;5071428;28;20215;-76
2021/08/25 11:39:27;;;;;;;155.80;147.48;;;25.20;85.90;;;;;;5074812;28;20253;-76
2021/08/25 11:41:56;;;;;;;150.27;142.38;;;25.00;85.60;;;;;;5067574;28;20271;-76
2021/08/25 11:50:02;;;;;;;184.65;174.10;;;24.90;87.10;;;;;;5070468;28;20210;-76
2021/08/25 11:58:01;;;;;;;212.63;200.82;;;24.90;89.90;;;;;;5074638;28;20208;-76
2021/08/25 12:00:41;;;;;;;163.93;155.20;;;24.80;88.70;;;;;;5067089;28;20804;-76
2021/08/25 12:03:10;;;;;;;164.88;156.05;;;24.80;89.00;;;;;;5071695;28;20255;-76
2021/08/25 12:05:39;;;;;;;201.77;190.38;;;24.90;89.80;;;;;;5069216;28;20201;-75
2021/08/25 12:08:09;;;;;;;177.98;167.70;;;25.00;90.00;;;;;;5072904;28;20201;-75
2021/08/25 12:10:39;;;;;;;151.18;142.50;;;25.00;89.40;;;;;;5080054;28;20197;-76
2021/08/25 12:13:07;;;;;;;165.30;156.10;;;24.80;89.10;;;;;;5072360;28;20211;-76
2021/08/25 12:15:53;;;;;;;153.13;145.00;;;24.80;89.90;;;;;;5071962;28;21026;-76
2021/08/25 12:18:22;;;;;;;174.90;165.20;;;24.80;89.10;;;;;;5071662;28;20204;-77
2021/08/25 12:26:17;;;;;;;195.98;184.30;;;24.60;90.50;;;;;;5070990;28;20213;-74
2021/08/25 12:28:44;;;;;;;210.52;198.80;;;24.40;91.10;;;;;;5067166;28;20255;-75
2021/08/25 12:31:15;;;;;;;183.35;173.32;;;24.30;91.40;;;;;;5068792;28;20210;-75
2021/08/25 12:33:42;;;;;;;176.18;166.35;;;24.30;91.10;;;;;;5066113;28;20209;-75
2021/08/25 12:36:26;;;;;;;180.88;170.98;;;24.30;91.60;;;;;;5066270;28;20267;-75
2021/08/25 12:38:54;;;;;;;190.07;179.55;;;24.30;92.00;;;;;;5072127;28;20201;-74
2021/08/25 12:41:22;;;;;;;252.50;237.82;;;24.40;92.40;;;;;;5066464;28;20200;-75
2021/08/25 12:43:50;;;;;;;191.38;180.65;;;24.50;92.40;;;;;;5072271;28;20221;-75
2021/08/25 12:46:18;;;;;;;210.85;199.25;;;24.60;93.20;;;;;;5068717;28;20208;-75
2021/08/25 12:48:45;;;;;;;209.65;197.48;;;24.60;92.70;;;;;;5072120;28;20205;-75
2021/08/25 12:51:18;;;;;;;208.15;196.20;;;24.70;92.70;;;;;;5072095;28;20262;-75
2021/08/25 12:53:45;;;;;;;202.20;190.38;;;24.70;92.30;;;;;;5065529;28;20210;-75
2021/08/25 12:56:12;;;;;;;229.27;216.05;;;24.70;92.50;;;;;;5065889;28;20236;-75
2021/08/25 12:58:39;;;;;;;245.13;231.15;;;24.80;92.80;;;;;;5065687;28;20201;-75
2021/08/25 13:01:05;;;;;;;252.10;237.57;;;24.80;92.00;;;;;;5069108;28;20202;-75
2021/08/25 13:03:34;;;;;;;223.25;209.75;;;24.80;92.50;;;;;;5068684;28;20263;-75
2021/08/25 13:06:01;;;;;;;227.52;214.40;;;24.80;92.40;;;;;;5065978;28;20718;-75
2021/08/25 13:08:27;;;;;;;268.08;252.05;;;24.80;91.90;;;;;;5070958;28;20201;-75
2021/08/25 13:10:54;;;;;;;237.70;222.88;;;24.80;91.80;;;;;;5071541;28;20209;-75
2021/08/25 13:13:21;;;;;;;228.07;215.25;;;24.90;92.70;;;;;;5073916;28;20197;-75
2021/08/25 13:15:48;;;;;;;227.35;213.00;;;24.80;92.00;;;;;;5070030;28;20656;-76
2021/08/25 13:18:15;;;;;;;255.88;240.60;;;24.70;91.80;;;;;;5075479;28;20202;-75
2021/08/25 13:20:44;;;;;;;227.52;214.43;;;24.60;92.60;;;;;;5070214;28;20282;-76
2021/08/25 13:23:11;;;;;;;231.88;218.63;;;24.50;92.30;;;;;;5069987;28;20227;-76
2021/08/25 13:25:38;;;;;;;251.60;236.98;;;24.40;92.40;;;;;;5069773;28;20281;-76